Time;durP1;ratioP1;P1;durP2;ratioP2;P2;SDS_P1;SDS_P2;PMS_P1;PMS_P2;Temp;Humidity;BMP_temperature;BMP_pressure;BME280_temperature;BME280_humidity;BME280_pressure;Samples;Min_cycle;Max_cycle;Signal;HPM_P1;HPM_P2
2023/05/28 00:04:21;;;;;;;11.27;7.53;;;;;;;;;;10098018;28;20524;-63
2023/05/28 00:09:19;;;;;;;10.02;6.70;;;;;;;;;;10099318;28;20081;-62
2023/05/28 00:14:17;;;;;;;13.13;7.38;;;;;;;;;;10100000;28;20480;-61
2023/05/28 00:19:15;;;;;;;9.30;6.80;;;;;;;;;;10100221;28;20070;-61
2023/05/28 00:24:15;;;;;;;9.93;6.85;;;;;;;;;;10099572;28;20079;-63
2023/05/28 00:29:14;;;;;;;11.73;8.13;;;;;;;;;;10093497;28;20090;-62
2023/05/28 00:34:12;;;;;;;10.43;8.38;;;;;;;;;;10099992;28;20075;-63
2023/05/28 00:39:10;;;;;;;10.85;7.78;;;;;;;;;;10097200;28;20069;-63
2023/05/28 00:44:10;;;;;;;7.70;6.68;;;;;;;;;;10097647;28;20070;-63
2023/05/28 00:49:10;;;;;;;8.75;6.40;;;;;;;;;;10099496;28;20082;-63
2023/05/28 00:54:08;;;;;;;10.05;6.35;;;;;;;;;;10094146;28;20070;-63
2023/05/28 00:59:07;;;;;;;6.95;6.25;;;;;;;;;;10098082;28;20069;-63
2023/05/28 01:04:07;;;;;;;9.75;7.80;;;;;;;;;;10099190;28;20043;-63
2023/05/28 01:09:05;;;;;;;9.73;6.78;;;;;;;;;;10097695;28;20520;-63
2023/05/28 01:14:07;;;;;;;7.45;6.75;;;;;;;;;;10098954;28;20078;-63
2023/05/28 01:19:08;;;;;;;12.50;7.25;;;;;;;;;;10099701;28;20078;-63
2023/05/28 01:24:09;;;;;;;9.25;8.13;;;;;;;;;;10094141;28;20055;-62
2023/05/28 01:29:14;;;;;;;10.57;8.35;;;;;;;;;;10093965;28;20086;-62
2023/05/28 01:34:14;;;;;;;15.38;9.50;;;;;;;;;;10091077;28;20082;-62
2023/05/28 01:39:15;;;;;;;13.63;12.05;;;;;;;;;;10097530;28;20523;-62
2023/05/28 01:44:15;;;;;;;17.13;14.02;;;;;;;;;;10097054;28;20078;-63
2023/05/28 01:49:13;;;;;;;16.88;15.05;;;;;;;;;;10093134;28;20100;-63
2023/05/28 01:54:12;;;;;;;16.98;13.60;;;;;;;;;;10109863;28;20081;-63
2023/05/28 01:59:11;;;;;;;15.63;13.48;;;;;;;;;;10108529;28;20042;-63
2023/05/28 02:04:10;;;;;;;17.80;13.60;;;;;;;;;;10108612;28;20471;-63
2023/05/28 02:09:08;;;;;;;14.23;10.80;;;;;;;;;;10094318;28;20079;-63
2023/05/28 02:14:06;;;;;;;12.07;9.23;;;;;;;;;;10096202;28;20071;-63
2023/05/28 02:19:06;;;;;;;12.70;10.43;;;;;;;;;;10093306;28;20079;-63
2023/05/28 02:24:06;;;;;;;11.50;9.88;;;;;;;;;;10095007;28;20074;-63
2023/05/28 02:29:06;;;;;;;14.10;10.57;;;;;;;;;;10099075;28;20091;-64
2023/05/28 02:34:08;;;;;;;12.60;10.18;;;;;;;;;;10104979;28;20085;-62
2023/05/28 02:39:10;;;;;;;10.77;8.88;;;;;;;;;;10117168;28;20484;-63
2023/05/28 02:44:09;;;;;;;11.60;8.05;;;;;;;;;;10103769;28;20470;-62
2023/05/28 02:49:09;;;;;;;13.00;7.78;;;;;;;;;;10104758;28;20074;-63
2023/05/28 02:54:08;;;;;;;11.05;7.25;;;;;;;;;;10099101;28;20074;-63
2023/05/28 02:59:07;;;;;;;17.38;7.78;;;;;;;;;;10099140;28;20643;-63
2023/05/28 03:04:06;;;;;;;8.70;7.40;;;;;;;;;;10099634;28;20520;-63
2023/05/28 03:09:06;;;;;;;9.45;6.93;;;;;;;;;;10100161;28;20093;-63
2023/05/28 03:14:05;;;;;;;7.90;7.07;;;;;;;;;;10103106;28;20047;-63
2023/05/28 03:19:03;;;;;;;11.75;7.38;;;;;;;;;;10100667;28;20558;-63
2023/05/28 03:24:04;;;;;;;14.27;7.75;;;;;;;;;;10099658;28;20087;-63
2023/05/28 03:29:15;;;;;;;10.75;7.65;;;;;;;;;;10098076;28;20086;-63
2023/05/28 03:34:35;;;;;;;12.63;6.10;;;;;;;;;;10100549;28;20107;-63
2023/05/28 03:39:34;;;;;;;9.00;6.95;;;;;;;;;;10098709;28;20078;-62
2023/05/28 03:44:34;;;;;;;14.80;7.97;;;;;;;;;;10099348;28;20082;-63
2023/05/28 03:49:32;;;;;;;9.52;7.68;;;;;;;;;;10096824;28;20093;-62
2023/05/28 03:54:31;;;;;;;10.95;8.40;;;;;;;;;;10100964;28;20117;-63
2023/05/28 03:59:29;;;;;;;14.00;8.07;;;;;;;;;;10096559;28;20094;-64
2023/05/28 04:04:29;;;;;;;16.20;8.07;;;;;;;;;;10112427;28;20540;-63
2023/05/28 04:09:28;;;;;;;11.85;7.55;;;;;;;;;;10101660;28;20075;-63
2023/05/28 04:14:26;;;;;;;11.20;7.30;;;;;;;;;;10096293;28;20094;-63
2023/05/28 04:19:24;;;;;;;12.65;7.63;;;;;;;;;;10100120;28;20077;-64
2023/05/28 04:24:24;;;;;;;10.68;7.30;;;;;;;;;;10097605;28;20564;-62
2023/05/28 04:29:25;;;;;;;8.65;7.47;;;;;;;;;;10096275;28;20090;-63
2023/05/28 04:34:24;;;;;;;11.07;7.80;;;;;;;;;;10099253;28;20062;-63
2023/05/28 04:39:24;;;;;;;9.90;7.85;;;;;;;;;;10092909;28;20074;-62
2023/05/28 04:44:25;;;;;;;8.13;6.93;;;;;;;;;;10104593;28;20055;-62
2023/05/28 04:49:25;;;;;;;12.30;7.72;;;;;;;;;;10094226;28;20567;-62
2023/05/28 04:54:26;;;;;;;11.98;7.53;;;;;;;;;;10095685;28;20074;-62
2023/05/28 04:59:25;;;;;;;10.90;8.55;;;;;;;;;;10094778;28;20089;-62
2023/05/28 05:04:23;;;;;;;10.65;8.15;;;;;;;;;;10095544;28;20101;-62
2023/05/28 05:09:23;;;;;;;15.07;8.85;;;;;;;;;;10093407;28;20081;-62
2023/05/28 05:14:22;;;;;;;10.60;8.57;;;;;;;;;;10099217;28;20073;-63
2023/05/28 05:19:20;;;;;;;10.20;8.07;;;;;;;;;;10093922;28;20062;-63
2023/05/28 05:24:19;;;;;;;14.27;8.65;;;;;;;;;;10092854;28;20548;-63
2023/05/28 05:29:17;;;;;;;10.43;7.60;;;;;;;;;;10092264;28;20073;-63
2023/05/28 05:34:17;;;;;;;11.23;8.30;;;;;;;;;;10091403;28;20082;-63
2023/05/28 05:39:41;;;;;;;15.23;8.18;;;;;;;;;;10079636;28;20106;-63
2023/05/28 05:44:55;;;;;;;13.70;8.18;;;;;;;;;;10100606;28;20146;-60
2023/05/28 05:49:54;;;;;;;13.57;8.63;;;;;;;;;;10090611;28;20075;-62
2023/05/28 05:54:54;;;;;;;14.77;9.38;;;;;;;;;;10088139;28;20091;-62
2023/05/28 05:59:54;;;;;;;10.13;7.85;;;;;;;;;;10091248;28;20070;-62
2023/05/28 06:04:52;;;;;;;15.35;8.30;;;;;;;;;;10102678;28;20074;-61
2023/05/28 06:10:00;;;;;;;13.80;7.88;;;;;;;;;;10094094;28;20083;-61
2023/05/28 06:15:05;;;;;;;15.07;8.60;;;;;;;;;;10091396;28;20508;-62
2023/05/28 06:20:06;;;;;;;15.10;8.77;;;;;;;;;;10103353;28;20081;-62
2023/05/28 06:25:08;;;;;;;11.43;8.25;;;;;;;;;;10089792;28;20090;-62
2023/05/28 06:30:08;;;;;;;15.13;8.57;;;;;;;;;;10093074;28;20085;-63
2023/05/28 06:35:08;;;;;;;13.27;8.85;;;;;;;;;;10095054;28;20049;-62
2023/05/28 06:40:10;;;;;;;12.63;9.00;;;;;;;;;;10092638;28;20090;-63
2023/05/28 06:45:09;;;;;;;17.45;9.65;;;;;;;;;;10093107;28;20168;-63
2023/05/28 06:50:10;;;;;;;14.65;8.45;;;;;;;;;;10093241;28;20082;-62
2023/05/28 06:55:10;;;;;;;11.05;8.48;;;;;;;;;;10094718;28;20078;-62
2023/05/28 07:00:16;;;;;;;13.95;9.23;;;;;;;;;;10092053;28;20499;-62
2023/05/28 07:05:25;;;;;;;13.55;8.60;;;;;;;;;;10110190;28;20091;-62
2023/05/28 07:10:25;;;;;;;16.05;8.88;;;;;;;;;;10092405;28;20089;-62
2023/05/28 07:15:23;;;;;;;16.25;9.50;;;;;;;;;;10098008;28;20070;-62
2023/05/28 07:20:22;;;;;;;14.13;9.35;;;;;;;;;;10098664;28;20465;-62
2023/05/28 07:25:25;;;;;;;11.70;8.68;;;;;;;;;;10100876;28;20093;-62
2023/05/28 07:30:24;;;;;;;13.68;8.80;;;;;;;;;;10097515;28;20086;-62
2023/05/28 07:35:26;;;;;;;15.25;9.80;;;;;;;;;;10097864;28;20086;-62
2023/05/28 07:40:26;;;;;;;12.75;8.57;;;;;;;;;;10101027;28;20070;-62
2023/05/28 07:45:29;;;;;;;9.05;8.25;;;;;;;;;;10100173;28;20082;-62
2023/05/28 07:50:28;;;;;;;11.85;9.10;;;;;;;;;;10093947;28;20089;-61
2023/05/28 07:55:41;;;;;;;16.88;9.82;;;;;;;;;;10096722;28;20817;-62
2023/05/28 08:00:39;;;;;;;13.80;8.15;;;;;;;;;;10101000;28;20508;-62
2023/05/28 08:05:38;;;;;;;10.65;9.27;;;;;;;;;;10096713;28;20070;-62
2023/05/28 08:10:36;;;;;;;18.38;9.15;;;;;;;;;;10097476;28;20075;-62
2023/05/28 08:15:37;;;;;;;11.93;8.25;;;;;;;;;;10097070;28;20470;-62
2023/05/28 08:20:38;;;;;;;14.95;9.35;;;;;;;;;;10115097;28;20090;-62
2023/05/28 08:25:46;;;;;;;9.55;8.50;;;;;;;;;;10096240;28;20086;-62
2023/05/28 08:30:54;;;;;;;13.18;7.93;;;;;;;;;;10092984;28;20086;-61
2023/05/28 08:36:02;;;;;;;14.32;7.68;;;;;;;;;;10093240;28;20082;-62
2023/05/28 08:41:02;;;;;;;10.70;7.30;;;;;;;;;;10098125;28;20094;-62
2023/05/28 08:46:02;;;;;;;10.38;7.85;;;;;;;;;;10096739;28;20086;-62
2023/05/28 08:51:08;;;;;;;14.77;7.55;;;;;;;;;;10109680;28;20086;-63
2023/05/28 08:56:11;;;;;;;11.45;9.73;;;;;;;;;;10095094;28;20077;-62
2023/05/28 09:01:11;;;;;;;11.15;6.60;;;;;;;;;;10094779;28;20504;-63
2023/05/28 09:06:31;;;;;;;8.70;6.45;;;;;;;;;;10093892;28;20090;-62
2023/05/28 09:11:30;;;;;;;9.20;6.13;;;;;;;;;;10094953;28;20086;-63
2023/05/28 09:16:29;;;;;;;9.52;6.88;;;;;;;;;;10094932;28;20066;-63
2023/05/28 09:21:37;;;;;;;9.73;7.28;;;;;;;;;;10092090;28;20082;-63
2023/05/28 09:26:41;;;;;;;10.57;6.82;;;;;;;;;;10094361;28;20090;-63
2023/05/28 09:31:58;;;;;;;10.32;8.65;;;;;;;;;;10099813;28;20086;-63
2023/05/28 09:37:00;;;;;;;9.57;8.63;;;;;;;;;;10102368;28;20082;-62
2023/05/28 09:42:00;;;;;;;7.30;6.38;;;;;;;;;;10095851;28;20071;-62
2023/05/28 09:47:00;;;;;;;18.23;8.23;;;;;;;;;;10098389;28;20067;-62
2023/05/28 09:52:02;;;;;;;13.65;5.93;;;;;;;;;;10097301;28;20078;-63
2023/05/28 09:57:03;;;;;;;10.57;7.80;;;;;;;;;;10096877;28;20085;-63
2023/05/28 10:02:08;;;;;;;7.80;6.45;;;;;;;;;;10098749;28;20074;-62
2023/05/28 10:07:07;;;;;;;7.03;6.43;;;;;;;;;;10098226;28;20089;-62
2023/05/28 10:12:09;;;;;;;13.38;7.03;;;;;;;;;;10095896;28;20086;-62
2023/05/28 10:17:10;;;;;;;11.95;8.02;;;;;;;;;;10104862;28;20466;-61
2023/05/28 10:22:08;;;;;;;11.02;7.53;;;;;;;;;;10094721;28;20085;-61
2023/05/28 10:27:06;;;;;;;8.48;6.35;;;;;;;;;;10093345;28;20688;-62
2023/05/28 10:32:06;;;;;;;13.02;9.60;;;;;;;;;;10092842;28;20527;-62
2023/05/28 10:37:08;;;;;;;8.27;6.18;;;;;;;;;;10093848;28;20187;-62
2023/05/28 10:42:07;;;;;;;8.70;7.18;;;;;;;;;;10095736;28;20082;-62
2023/05/28 10:47:07;;;;;;;8.23;5.70;;;;;;;;;;10095785;28;20481;-62
2023/05/28 10:52:06;;;;;;;7.35;5.88;;;;;;;;;;10100442;28;20554;-62
2023/05/28 10:57:08;;;;;;;12.30;6.78;;;;;;;;;;10101806;28;20083;-62
2023/05/28 11:02:06;;;;;;;11.18;6.85;;;;;;;;;;10100270;28;20090;-62
2023/05/28 11:07:05;;;;;;;8.52;6.07;;;;;;;;;;10102103;28;20078;-62
2023/05/28 11:12:06;;;;;;;6.60;5.97;;;;;;;;;;10103450;28;20086;-62
2023/05/28 11:17:08;;;;;;;6.22;5.63;;;;;;;;;;10101654;28;20082;-62
2023/05/28 11:22:06;;;;;;;9.13;6.57;;;;;;;;;;10101111;28;20082;-62
2023/05/28 11:27:06;;;;;;;8.00;5.35;;;;;;;;;;10102546;28;20090;-62
2023/05/28 11:32:05;;;;;;;7.93;6.50;;;;;;;;;;10100933;28;20588;-62
2023/05/28 11:37:05;;;;;;;7.90;5.68;;;;;;;;;;10102036;28;20094;-62
2023/05/28 11:42:03;;;;;;;6.95;5.55;;;;;;;;;;10100430;28;20082;-62
2023/05/28 11:47:02;;;;;;;9.63;6.30;;;;;;;;;;10101063;28;20067;-63
2023/05/28 11:52:03;;;;;;;7.35;5.22;;;;;;;;;;10102042;28;20079;-63
2023/05/28 11:57:03;;;;;;;10.57;6.43;;;;;;;;;;10101272;28;20470;-63
2023/05/28 12:02:12;;;;;;;9.60;6.75;;;;;;;;;;10098220;28;20520;-62
2023/05/28 12:07:12;;;;;;;6.13;5.63;;;;;;;;;;10100068;28;20081;-62
2023/05/28 12:12:11;;;;;;;9.88;6.10;;;;;;;;;;10100405;28;20074;-62
2023/05/28 12:17:11;;;;;;;6.50;4.65;;;;;;;;;;10100662;28;20074;-61
2023/05/28 12:22:18;;;;;;;9.23;5.85;;;;;;;;;;10101117;28;20074;-61
2023/05/28 12:27:17;;;;;;;7.88;5.95;;;;;;;;;;10100483;28;20081;-61
2023/05/28 12:32:15;;;;;;;7.25;5.40;;;;;;;;;;10095277;28;20179;-61
2023/05/28 12:37:15;;;;;;;5.82;5.22;;;;;;;;;;10099208;28;20089;-62
2023/05/28 12:42:13;;;;;;;6.03;5.43;;;;;;;;;;10098629;28;20071;-61
2023/05/28 12:47:12;;;;;;;6.60;4.78;;;;;;;;;;10099697;28;20081;-62
2023/05/28 12:52:10;;;;;;;8.23;4.60;;;;;;;;;;10097870;28;20078;-62
2023/05/28 12:57:10;;;;;;;9.07;4.38;;;;;;;;;;10096596;28;20071;-62
2023/05/28 13:02:08;;;;;;;8.82;5.75;;;;;;;;;;10100530;28;20102;-62
2023/05/28 13:07:08;;;;;;;6.40;4.93;;;;;;;;;;10098114;28;20082;-62
2023/05/28 13:12:06;;;;;;;4.65;4.13;;;;;;;;;;10099440;28;20062;-62
2023/05/28 13:17:06;;;;;;;9.70;4.90;;;;;;;;;;10096711;28;20074;-62
2023/05/28 13:22:04;;;;;;;8.23;4.70;;;;;;;;;;10096866;28;20063;-62
2023/05/28 13:27:03;;;;;;;7.00;5.57;;;;;;;;;;10096747;28;20075;-62
2023/05/28 13:32:01;;;;;;;7.50;5.20;;;;;;;;;;10098004;28;20539;-62
2023/05/28 13:37:01;;;;;;;12.38;5.95;;;;;;;;;;10096507;28;20070;-62
2023/05/28 13:42:03;;;;;;;6.72;4.57;;;;;;;;;;10096274;28;20508;-62
2023/05/28 13:47:01;;;;;;;6.93;5.88;;;;;;;;;;10097072;28;20079;-62
2023/05/28 13:52:01;;;;;;;6.80;5.63;;;;;;;;;;10095963;28;20077;-63
2023/05/28 13:57:02;;;;;;;8.02;5.30;;;;;;;;;;10096343;28;20070;-62
2023/05/28 14:02:01;;;;;;;12.48;5.43;;;;;;;;;;10095370;28;20078;-62
2023/05/28 14:07:00;;;;;;;8.50;6.10;;;;;;;;;;10095802;28;20074;-62
2023/05/28 14:12:00;;;;;;;12.15;6.07;;;;;;;;;;10092190;28;20081;-61
2023/05/28 14:17:02;;;;;;;5.43;3.80;;;;;;;;;;10096423;28;20100;-63
2023/05/28 14:22:02;;;;;;;5.47;3.25;;;;;;;;;;10096127;28;20505;-63
2023/05/28 14:27:01;;;;;;;4.22;2.53;;;;;;;;;;10093583;28;20086;-63
2023/05/28 14:32:02;;;;;;;7.28;3.08;;;;;;;;;;10096101;28;20078;-63
2023/05/28 14:37:05;;;;;;;5.07;3.40;;;;;;;;;;10095098;28;20452;-61
2023/05/28 14:42:03;;;;;;;6.43;3.50;;;;;;;;;;10095590;28;20480;-61
2023/05/28 14:47:01;;;;;;;7.20;3.58;;;;;;;;;;10095750;28;20074;-62
2023/05/28 14:52:20;;;;;;;5.63;3.67;;;;;;;;;;10094862;28;20505;-61
2023/05/28 14:57:20;;;;;;;4.60;3.10;;;;;;;;;;10096070;28;20074;-60
2023/05/28 15:02:19;;;;;;;4.35;3.30;;;;;;;;;;10094803;28;20122;-62
2023/05/28 15:07:17;;;;;;;5.18;3.65;;;;;;;;;;10094724;28;20089;-61
2023/05/28 15:12:15;;;;;;;4.82;3.13;;;;;;;;;;10094859;28;20509;-62
2023/05/28 15:17:15;;;;;;;6.05;3.50;;;;;;;;;;10094255;28;20096;-61
2023/05/28 15:22:13;;;;;;;3.67;3.05;;;;;;;;;;10094649;28;20075;-62
2023/05/28 15:27:11;;;;;;;8.20;3.70;;;;;;;;;;10099046;28;20488;-62
2023/05/28 15:32:10;;;;;;;6.65;3.90;;;;;;;;;;10095572;28;20100;-62
2023/05/28 15:37:10;;;;;;;3.85;3.42;;;;;;;;;;10096484;28;20074;-62
2023/05/28 15:42:09;;;;;;;3.95;3.47;;;;;;;;;;10102554;28;20086;-62
2023/05/28 15:47:07;;;;;;;7.13;3.70;;;;;;;;;;10100262;28;20079;-63
2023/05/28 15:52:06;;;;;;;7.40;5.43;;;;;;;;;;10101580;28;20077;-63
2023/05/28 15:57:06;;;;;;;11.45;9.45;;;;;;;;;;10097048;28;20129;-62
2023/05/28 16:02:07;;;;;;;10.73;6.35;;;;;;;;;;10100453;28;20497;-63
2023/05/28 16:07:05;;;;;;;8.75;6.60;;;;;;;;;;10109611;28;20159;-63
2023/05/28 16:12:05;;;;;;;8.18;6.07;;;;;;;;;;10094996;28;20093;-63
2023/05/28 16:17:05;;;;;;;7.68;4.97;;;;;;;;;;10102900;28;20081;-62
2023/05/28 16:22:04;;;;;;;4.95;4.22;;;;;;;;;;10107774;28;20063;-63
2023/05/28 16:27:03;;;;;;;9.05;4.70;;;;;;;;;;10103510;28;20078;-63
2023/05/28 16:32:01;;;;;;;6.97;4.53;;;;;;;;;;10103222;28;20138;-63
2023/05/28 16:37:02;;;;;;;8.50;5.13;;;;;;;;;;10101235;28;20075;-63
2023/05/28 16:42:01;;;;;;;6.35;4.40;;;;;;;;;;10096385;28;20074;-62
2023/05/28 16:47:00;;;;;;;9.05;5.57;;;;;;;;;;10099359;28;20519;-61
2023/05/28 16:51:58;;;;;;;7.05;5.03;;;;;;;;;;10107596;28;20089;-62
2023/05/28 16:56:58;;;;;;;5.97;5.38;;;;;;;;;;10103644;28;20071;-62
2023/05/28 17:01:56;;;;;;;7.47;3.90;;;;;;;;;;10101794;28;20094;-63
2023/05/28 17:06:57;;;;;;;4.75;4.10;;;;;;;;;;10103881;28;20078;-62
2023/05/28 17:11:55;;;;;;;6.65;5.78;;;;;;;;;;10102700;28;20493;-63
2023/05/28 17:16:55;;;;;;;5.90;5.40;;;;;;;;;;10097488;28;20102;-62
2023/05/28 17:21:53;;;;;;;7.88;5.60;;;;;;;;;;10095862;28;20067;-62
2023/05/28 17:26:51;;;;;;;7.18;6.05;;;;;;;;;;10095859;28;20087;-63
2023/05/28 17:31:50;;;;;;;13.23;8.05;;;;;;;;;;10093154;28;20073;-62
2023/05/28 17:36:49;;;;;;;8.00;6.63;;;;;;;;;;10099299;28;20078;-62
2023/05/28 17:41:48;;;;;;;13.60;11.05;;;;;;;;;;10092486;28;20081;-62
2023/05/28 17:46:46;;;;;;;10.07;7.40;;;;;;;;;;10102409;28;20070;-62
2023/05/28 17:51:44;;;;;;;11.77;5.80;;;;;;;;;;10093924;28;20074;-63
2023/05/28 17:56:44;;;;;;;8.68;5.50;;;;;;;;;;10097341;28;20070;-63
2023/05/28 18:01:42;;;;;;;7.55;5.68;;;;;;;;;;10096649;28;20067;-63
2023/05/28 18:06:41;;;;;;;8.00;6.85;;;;;;;;;;10100813;28;20075;-63
2023/05/28 18:11:39;;;;;;;7.13;6.30;;;;;;;;;;10102781;28;20686;-63
2023/05/28 18:16:39;;;;;;;7.50;6.85;;;;;;;;;;10095444;28;20074;-63
2023/05/28 18:21:37;;;;;;;8.75;6.82;;;;;;;;;;10093863;28;20073;-63
2023/05/28 18:26:35;;;;;;;9.45;6.75;;;;;;;;;;10095655;28;20489;-61
2023/05/28 18:31:33;;;;;;;7.38;6.68;;;;;;;;;;10095773;28;20085;-61
2023/05/28 18:36:34;;;;;;;7.18;6.50;;;;;;;;;;10094825;28;20086;-61
2023/05/28 18:41:35;;;;;;;9.00;6.18;;;;;;;;;;10099867;28;20078;-62
2023/05/28 18:46:33;;;;;;;8.30;6.07;;;;;;;;;;10096987;28;20081;-62
2023/05/28 18:51:33;;;;;;;5.82;5.32;;;;;;;;;;10094005;28;20074;-62
2023/05/28 18:56:31;;;;;;;7.32;6.57;;;;;;;;;;10094417;28;20085;-62
2023/05/28 19:01:30;;;;;;;16.90;8.27;;;;;;;;;;10094626;28;20090;-62
2023/05/28 19:06:28;;;;;;;9.90;6.60;;;;;;;;;;10096703;28;20085;-62
2023/05/28 19:11:28;;;;;;;8.85;7.40;;;;;;;;;;10095646;28;20470;-62
2023/05/28 19:16:26;;;;;;;7.93;7.22;;;;;;;;;;10101405;28;20481;-62
2023/05/28 19:21:24;;;;;;;11.15;7.00;;;;;;;;;;10102940;28;20087;-62
2023/05/28 19:26:23;;;;;;;9.38;7.55;;;;;;;;;;10101122;28;20078;-62
2023/05/28 19:31:22;;;;;;;10.10;7.20;;;;;;;;;;10103024;28;20042;-62
2023/05/28 19:36:20;;;;;;;9.25;6.82;;;;;;;;;;10102035;28;20078;-62
2023/05/28 19:41:19;;;;;;;8.15;6.05;;;;;;;;;;10102172;28;20070;-62
2023/05/28 19:46:17;;;;;;;12.43;7.28;;;;;;;;;;10104717;28;20523;-62
2023/05/28 19:51:17;;;;;;;10.10;7.95;;;;;;;;;;10105548;28;20081;-62
2023/05/28 19:56:15;;;;;;;8.25;6.85;;;;;;;;;;10104821;28;20074;-62
2023/05/28 20:01:13;;;;;;;9.27;7.18;;;;;;;;;;10101163;28;20067;-62
2023/05/28 20:06:11;;;;;;;7.95;7.15;;;;;;;;;;10099094;28;20558;-62
2023/05/28 20:11:11;;;;;;;8.10;7.30;;;;;;;;;;10101285;28;20062;-62
2023/05/28 20:16:09;;;;;;;8.90;7.13;;;;;;;;;;10105461;28;20074;-63
2023/05/28 20:21:08;;;;;;;10.60;7.47;;;;;;;;;;10101485;28;20075;-62
2023/05/28 20:26:06;;;;;;;8.88;7.28;;;;;;;;;;10100336;28;20085;-62
2023/05/28 20:31:05;;;;;;;8.85;7.15;;;;;;;;;;10100291;28;20074;-62
2023/05/28 20:36:05;;;;;;;8.95;8.02;;;;;;;;;;10102349;28;20109;-62
2023/05/28 20:41:03;;;;;;;9.82;7.95;;;;;;;;;;10107817;28;20070;-62
2023/05/28 20:46:02;;;;;;;12.98;9.20;;;;;;;;;;10104162;28;20067;-61
2023/05/28 20:51:03;;;;;;;10.13;8.55;;;;;;;;;;10098490;28;20086;-62
2023/05/28 20:56:01;;;;;;;16.25;10.73;;;;;;;;;;10102110;28;20080;-62
2023/05/28 21:00:59;;;;;;;16.52;11.30;;;;;;;;;;10102306;28;20067;-62
2023/05/28 21:05:58;;;;;;;16.38;12.30;;;;;;;;;;10099403;28;20074;-62
2023/05/28 21:10:57;;;;;;;12.35;10.18;;;;;;;;;;10101692;28;20090;-62
2023/05/28 21:15:55;;;;;;;11.20;10.00;;;;;;;;;;10097925;28;20529;-62
2023/05/28 21:20:55;;;;;;;12.00;10.68;;;;;;;;;;10101532;28;20062;-62
2023/05/28 21:25:54;;;;;;;10.85;9.45;;;;;;;;;;10099632;28;20831;-62
2023/05/28 21:30:54;;;;;;;11.15;9.30;;;;;;;;;;10097918;28;20521;-63
2023/05/28 21:35:54;;;;;;;10.07;9.05;;;;;;;;;;10098356;28;20086;-62
2023/05/28 21:40:54;;;;;;;11.77;9.90;;;;;;;;;;10097128;28;20054;-62
2023/05/28 21:45:53;;;;;;;11.52;10.02;;;;;;;;;;10098576;28;20090;-61
2023/05/28 21:50:52;;;;;;;11.52;9.80;;;;;;;;;;10097319;28;20068;-62
2023/05/28 21:55:51;;;;;;;12.10;10.10;;;;;;;;;;10098139;28;20078;-63
2023/05/28 22:00:49;;;;;;;11.48;10.38;;;;;;;;;;10099667;28;20081;-62
2023/05/28 22:05:49;;;;;;;13.68;10.52;;;;;;;;;;10094674;28;20073;-62
2023/05/28 22:10:47;;;;;;;11.93;10.80;;;;;;;;;;10099749;28;20074;-63
2023/05/28 22:15:45;;;;;;;13.20;10.00;;;;;;;;;;10098263;28;20071;-62
2023/05/28 22:20:44;;;;;;;9.82;8.85;;;;;;;;;;10099020;28;20074;-62
2023/05/28 22:25:44;;;;;;;11.93;10.38;;;;;;;;;;10096761;28;20078;-62
2023/05/28 22:30:43;;;;;;;10.27;9.27;;;;;;;;;;10099232;28;20609;-62
2023/05/28 22:35:41;;;;;;;10.75;8.98;;;;;;;;;;10097555;28;20098;-62
2023/05/28 22:40:39;;;;;;;9.23;8.13;;;;;;;;;;10097357;28;20110;-62
2023/05/28 22:45:39;;;;;;;8.23;7.50;;;;;;;;;;10099524;28;20085;-61
2023/05/28 22:50:37;;;;;;;11.02;7.50;;;;;;;;;;10105132;28;20070;-62
2023/05/28 22:55:36;;;;;;;11.38;8.35;;;;;;;;;;10106938;28;20565;-62
2023/05/28 23:00:34;;;;;;;9.00;6.93;;;;;;;;;;10104260;28;20074;-62
2023/05/28 23:05:33;;;;;;;9.48;7.75;;;;;;;;;;10105502;28;20471;-62
2023/05/28 23:10:32;;;;;;;13.00;8.20;;;;;;;;;;10103750;28;20504;-63
2023/05/28 23:15:30;;;;;;;8.13;5.93;;;;;;;;;;10104223;28;20066;-62
2023/05/28 23:20:28;;;;;;;10.23;7.07;;;;;;;;;;10105453;28;20178;-64
2023/05/28 23:25:28;;;;;;;7.55;6.85;;;;;;;;;;10106076;28;20090;-62
2023/05/28 23:30:26;;;;;;;8.50;7.18;;;;;;;;;;10103941;28;20071;-62
2023/05/28 23:35:27;;;;;;;9.02;7.20;;;;;;;;;;10104267;28;20070;-64
2023/05/28 23:40:26;;;;;;;8.80;7.90;;;;;;;;;;10102737;28;20071;-61
2023/05/28 23:45:25;;;;;;;10.57;7.40;;;;;;;;;;10102172;28;20085;-61
2023/05/28 23:50:24;;;;;;;8.10;7.32;;;;;;;;;;10103504;28;20532;-63
2023/05/28 23:55:22;;;;;;;8.38;7.40;;;;;;;;;;10103036;28;20531;-62
